Time;durP1;ratioP1;P1;durP2;ratioP2;P2;SDS_P1;SDS_P2;PMS_P1;PMS_P2;Temp;Humidity;BMP_temperature;BMP_pressure;BME280_temperature;BME280_humidity;BME280_pressure;Samples;Min_cycle;Max_cycle;Signal;HPM_P1;HPM_P2
2022/08/19 00:00:13;;;;;;;2.90;1.92;;;21.40;67.70;;;;;;5058482;28;20029;-80
2022/08/19 00:02:40;;;;;;;3.10;1.95;;;21.30;67.70;;;;;;5072817;28;20021;-79
2022/08/19 00:05:06;;;;;;;4.45;1.95;;;21.40;67.90;;;;;;5079824;28;20609;-80
2022/08/19 00:07:32;;;;;;;5.85;2.00;;;21.30;67.80;;;;;;5098172;28;20169;-80
2022/08/19 00:09:58;;;;;;;3.47;1.63;;;21.30;67.80;;;;;;5080330;28;20028;-79
2022/08/19 00:12:24;;;;;;;3.63;1.35;;;21.30;67.90;;;;;;5074530;28;20136;-79
2022/08/19 00:14:49;;;;;;;4.13;1.67;;;21.30;67.80;;;;;;5067992;28;20029;-79
2022/08/19 00:17:17;;;;;;;2.80;1.55;;;21.20;68.10;;;;;;5057789;28;20029;-80
2022/08/19 00:19:43;;;;;;;5.28;1.38;;;21.20;68.20;;;;;;5057588;28;20395;-79
2022/08/19 00:22:09;;;;;;;3.58;1.73;;;21.20;68.20;;;;;;5057212;28;20112;-80
2022/08/19 00:24:35;;;;;;;3.33;1.40;;;21.20;68.40;;;;;;5057131;28;20048;-79
2022/08/19 00:27:01;;;;;;;4.15;1.70;;;21.20;68.40;;;;;;5043756;28;20385;-80
2022/08/19 00:29:27;;;;;;;4.47;1.70;;;21.10;68.50;;;;;;5077739;28;20029;-80
2022/08/19 00:31:54;;;;;;;3.42;1.40;;;21.10;68.90;;;;;;5077565;28;20028;-79
2022/08/19 00:34:21;;;;;;;1.75;1.23;;;21.10;68.80;;;;;;5065377;28;20029;-80
2022/08/19 00:36:48;;;;;;;2.30;1.42;;;21.10;69.10;;;;;;5039743;28;20108;-79
2022/08/19 00:39:16;;;;;;;2.35;1.23;;;21.10;68.90;;;;;;5056862;28;20021;-79
2022/08/19 00:41:44;;;;;;;2.15;1.38;;;21.20;69.00;;;;;;5039775;28;20021;-79
2022/08/19 00:44:20;;;;;;;3.92;1.58;;;21.20;69.10;;;;;;5056312;28;20029;-80
2022/08/19 00:46:48;;;;;;;2.88;1.33;;;21.20;69.00;;;;;;5039235;28;20033;-80
2022/08/19 00:49:28;;;;;;;5.63;1.35;;;21.20;68.90;;;;;;5064889;28;20035;-80
2022/08/19 00:52:02;;;;;;;3.40;1.52;;;21.20;69.20;;;;;;5059150;28;20082;-80
2022/08/19 00:54:31;;;;;;;4.40;1.30;;;21.20;69.20;;;;;;5059008;28;20051;-80
2022/08/19 00:56:58;;;;;;;3.42;1.70;;;21.20;69.40;;;;;;5054590;28;20123;-80
2022/08/19 00:59:25;;;;;;;3.28;1.45;;;21.30;69.40;;;;;;5056785;28;20500;-80
2022/08/19 01:01:50;;;;;;;2.17;1.20;;;21.20;69.40;;;;;;5056156;28;20024;-79
2022/08/19 01:04:16;;;;;;;3.00;1.30;;;21.30;69.70;;;;;;5072611;28;20032;-80
2022/08/19 01:06:42;;;;;;;3.63;1.25;;;21.20;69.90;;;;;;5075289;28;20028;-80
2022/08/19 01:09:09;;;;;;;1.52;1.00;;;21.20;69.90;;;;;;5074842;28;20558;-79
2022/08/19 01:11:39;;;;;;;3.17;1.00;;;21.20;70.20;;;;;;5057109;28;20476;-80
2022/08/19 01:14:05;;;;;;;1.88;1.08;;;21.10;70.70;;;;;;5038790;28;20045;-80
2022/08/19 01:16:32;;;;;;;2.50;1.00;;;21.00;71.10;;;;;;5038171;28;20143;-79
2022/08/19 01:18:58;;;;;;;3.15;1.30;;;21.00;71.20;;;;;;5073215;28;20384;-80
2022/08/19 01:21:56;;;;;;;1.70;0.80;;;21.00;71.30;;;;;;5076668;28;20036;-80
2022/08/19 01:24:21;;;;;;;2.10;1.30;;;21.00;71.30;;;;;;5073466;28;20020;-80
2022/08/19 01:26:47;;;;;;;2.20;1.13;;;21.00;71.50;;;;;;5056361;28;20036;-79
2022/08/19 01:29:13;;;;;;;1.67;1.05;;;21.00;71.60;;;;;;5056529;28;20052;-79
2022/08/19 01:31:39;;;;;;;2.00;1.10;;;21.10;71.30;;;;;;5038408;28;20040;-80
2022/08/19 01:34:06;;;;;;;2.28;1.00;;;21.10;71.70;;;;;;5056075;28;20021;-80
2022/08/19 01:36:47;;;;;;;2.10;1.02;;;21.10;71.60;;;;;;5054788;28;20075;-80
2022/08/19 01:39:24;;;;;;;1.75;1.15;;;21.10;71.30;;;;;;5056186;28;20036;-79
2022/08/19 01:41:52;;;;;;;3.22;1.23;;;21.20;71.00;;;;;;5056192;28;20025;-80
2022/08/19 01:44:20;;;;;;;3.03;1.30;;;21.10;71.70;;;;;;5056419;28;20103;-80
2022/08/19 01:46:47;;;;;;;1.67;1.02;;;21.00;72.10;;;;;;5056029;28;20057;-80
2022/08/19 01:49:13;;;;;;;2.60;1.23;;;21.00;72.10;;;;;;5053634;28;20036;-79
2022/08/19 01:51:39;;;;;;;1.40;0.90;;;21.00;72.10;;;;;;5058213;28;20062;-79
2022/08/19 01:54:05;;;;;;;3.45;1.23;;;21.00;72.00;;;;;;5075481;28;20503;-80
2022/08/19 01:56:30;;;;;;;3.88;1.00;;;21.00;71.90;;;;;;5068509;28;20024;-80
2022/08/19 01:59:04;;;;;;;2.33;1.38;;;21.10;71.70;;;;;;5056024;28;20017;-80
2022/08/19 02:01:31;;;;;;;3.95;1.23;;;21.10;71.70;;;;;;5055919;28;20033;-80
2022/08/19 02:04:00;;;;;;;3.40;1.10;;;21.10;71.60;;;;;;5055970;28;20404;-80
2022/08/19 02:06:27;;;;;;;2.97;1.05;;;21.20;71.40;;;;;;5084052;28;20024;-80
2022/08/19 02:08:52;;;;;;;2.05;1.25;;;21.20;71.40;;;;;;5096044;28;20076;-80
2022/08/19 02:11:33;;;;;;;1.90;1.17;;;21.20;71.70;;;;;;5053717;28;20499;-80
2022/08/19 02:14:05;;;;;;;5.55;1.30;;;21.10;71.70;;;;;;5054834;28;20080;-79
2022/08/19 02:16:33;;;;;;;1.95;1.20;;;21.10;71.70;;;;;;5039771;28;20044;-79
2022/08/19 02:19:00;;;;;;;2.70;1.30;;;21.10;72.10;;;;;;5042074;28;20021;-79
2022/08/19 02:21:26;;;;;;;2.22;1.38;;;21.10;71.90;;;;;;5062807;28;20064;-79
2022/08/19 02:23:51;;;;;;;2.30;1.40;;;21.10;72.30;;;;;;5055542;28;20029;-79
2022/08/19 02:26:19;;;;;;;2.75;1.48;;;21.10;72.60;;;;;;5038008;28;20028;-80
2022/08/19 02:28:45;;;;;;;4.05;1.73;;;21.10;72.20;;;;;;5037787;28;20421;-80
2022/08/19 02:31:14;;;;;;;2.45;1.40;;;21.10;72.30;;;;;;5036664;28;20073;-79
2022/08/19 02:33:40;;;;;;;2.30;1.47;;;21.10;72.90;;;;;;5055206;28;20021;-79
2022/08/19 02:36:07;;;;;;;4.32;1.75;;;21.00;73.20;;;;;;5055642;28;20036;-79
2022/08/19 02:38:33;;;;;;;2.90;1.65;;;21.00;73.20;;;;;;5055267;28;20832;-80
2022/08/19 02:41:05;;;;;;;5.15;1.77;;;20.90;73.40;;;;;;5037505;28;20080;-79
2022/08/19 02:43:36;;;;;;;2.30;1.65;;;21.00;73.10;;;;;;5037557;28;20029;-80
2022/08/19 02:46:13;;;;;;;5.35;1.73;;;21.00;73.00;;;;;;5037237;28;20017;-80
2022/08/19 02:48:38;;;;;;;4.50;1.58;;;21.00;73.00;;;;;;5054821;28;20021;-80
2022/08/19 02:51:05;;;;;;;4.15;1.60;;;21.00;73.10;;;;;;5037498;28;20014;-79
2022/08/19 02:53:30;;;;;;;2.72;1.80;;;21.00;73.20;;;;;;5056112;28;20471;-80
2022/08/19 02:55:56;;;;;;;4.63;1.52;;;21.00;73.10;;;;;;5057015;28;20043;-80
2022/08/19 02:58:23;;;;;;;2.88;1.60;;;21.00;73.30;;;;;;5075432;28;20020;-79
2022/08/19 03:00:54;;;;;;;4.45;1.67;;;21.00;73.70;;;;;;5075266;28;20090;-79
2022/08/19 03:03:21;;;;;;;5.30;1.73;;;21.00;73.70;;;;;;5074854;28;20024;-79
2022/08/19 03:05:46;;;;;;;3.25;1.65;;;21.00;74.00;;;;;;5054919;28;20023;-79
2022/08/19 03:08:13;;;;;;;5.97;1.80;;;20.90;73.90;;;;;;5098438;28;20028;-79
2022/08/19 03:10:47;;;;;;;3.33;1.63;;;20.90;73.70;;;;;;5080616;28;20031;-80
2022/08/19 03:13:30;;;;;;;5.03;2.00;;;20.90;74.70;;;;;;5064215;28;20045;-79
2022/08/19 03:15:56;;;;;;;3.88;1.50;;;20.90;74.70;;;;;;5040951;28;20040;-80
2022/08/19 03:18:21;;;;;;;5.63;1.35;;;20.90;74.90;;;;;;5059029;28;20025;-79
2022/08/19 03:20:49;;;;;;;2.50;1.58;;;20.80;75.40;;;;;;5066497;28;20100;-79
2022/08/19 03:23:16;;;;;;;2.80;1.60;;;20.90;74.80;;;;;;5060846;28;20567;-79
2022/08/19 03:25:46;;;;;;;2.47;1.33;;;20.90;75.40;;;;;;5056266;28;20133;-80
2022/08/19 03:28:13;;;;;;;2.65;1.40;;;20.80;75.30;;;;;;5058163;28;20108;-79
2022/08/19 03:30:40;;;;;;;3.50;1.50;;;20.90;75.70;;;;;;5040649;28;20032;-80
2022/08/19 03:33:09;;;;;;;2.95;1.45;;;20.80;76.10;;;;;;5040646;28;20047;-79
2022/08/19 03:35:36;;;;;;;4.40;1.38;;;20.80;76.00;;;;;;5058340;28;20484;-79
2022/08/19 03:38:04;;;;;;;3.03;1.63;;;20.80;76.30;;;;;;5057886;28;20028;-79
2022/08/19 03:40:30;;;;;;;2.08;1.20;;;20.80;76.30;;;;;;5058800;28;20036;-79
2022/08/19 03:42:56;;;;;;;2.45;1.60;;;20.80;76.40;;;;;;5040782;28;20034;-80
2022/08/19 03:45:22;;;;;;;1.95;1.20;;;20.80;76.70;;;;;;5060726;28;20019;-80
2022/08/19 03:47:53;;;;;;;4.38;1.60;;;20.80;77.00;;;;;;5060175;28;20123;-80
2022/08/19 03:50:19;;;;;;;3.10;1.48;;;20.80;76.90;;;;;;5078344;28;20082;-80
2022/08/19 03:52:50;;;;;;;3.10;1.40;;;20.80;76.60;;;;;;5060360;28;20480;-79
2022/08/19 03:55:16;;;;;;;2.53;1.20;;;20.80;76.80;;;;;;5055871;28;20115;-79
2022/08/19 03:57:42;;;;;;;2.47;1.30;;;20.80;76.90;;;;;;5057603;28;20035;-80
2022/08/19 04:00:09;;;;;;;3.10;1.50;;;20.80;77.10;;;;;;5057714;28;20025;-80
2022/08/19 04:02:34;;;;;;;2.97;1.42;;;20.80;77.30;;;;;;5068699;28;20017;-79
2022/08/19 04:05:00;;;;;;;3.40;1.60;;;20.80;77.10;;;;;;5061851;28;20033;-80
2022/08/19 04:07:26;;;;;;;4.22;1.50;;;20.80;77.20;;;;;;5097779;28;20035;-79
2022/08/19 04:09:52;;;;;;;3.60;1.50;;;20.80;77.60;;;;;;5057438;28;20032;-79
2022/08/19 04:12:20;;;;;;;2.65;1.40;;;20.70;78.00;;;;;;5058002;28;20049;-78
2022/08/19 04:14:46;;;;;;;2.20;1.13;;;20.80;77.70;;;;;;5057913;28;20029;-79
2022/08/19 04:17:13;;;;;;;2.20;0.95;;;20.70;77.90;;;;;;5057673;28;20029;-79
2022/08/19 04:19:39;;;;;;;2.90;1.45;;;20.70;78.20;;;;;;5039291;28;20450;-79
2022/08/19 04:22:05;;;;;;;2.50;1.52;;;20.70;78.20;;;;;;5057692;28;20384;-80
2022/08/19 04:24:31;;;;;;;3.70;1.55;;;20.70;78.10;;;;;;5056773;28;20040;-79
2022/08/19 04:26:56;;;;;;;1.70;1.10;;;20.80;78.20;;;;;;5057189;28;20021;-79
2022/08/19 04:29:24;;;;;;;3.33;1.40;;;20.80;78.20;;;;;;5059997;28;20025;-79
2022/08/19 04:31:53;;;;;;;2.85;1.48;;;20.70;78.50;;;;;;5039704;28;20032;-80
2022/08/19 04:34:24;;;;;;;2.38;1.20;;;20.80;78.30;;;;;;5039430;28;20037;-80
2022/08/19 04:36:52;;;;;;;3.80;1.55;;;20.80;78.10;;;;;;5057630;28;20021;-79
2022/08/19 04:39:22;;;;;;;2.58;1.55;;;20.70;78.40;;;;;;5039212;28;20036;-79
2022/08/19 04:44:33;;;;;;;3.50;1.83;;;20.70;78.80;;;;;;5075677;28;20043;-80
2022/08/19 04:46:59;;;;;;;3.08;1.20;;;20.60;78.80;;;;;;5058971;28;20032;-79
2022/08/19 04:49:25;;;;;;;4.20;1.80;;;20.60;79.00;;;;;;5077258;28;20025;-80
2022/08/19 04:51:54;;;;;;;2.72;1.05;;;20.70;78.80;;;;;;5062749;28;20027;-78
2022/08/19 04:54:22;;;;;;;4.50;1.58;;;20.60;79.20;;;;;;5056789;28;20036;-83
2022/08/19 04:56:52;;;;;;;2.58;1.55;;;20.70;79.10;;;;;;5056976;28;20867;-78
2022/08/19 04:59:19;;;;;;;;;;;20.70;78.80;;;;;;5056704;28;20596;-80
2022/08/19 05:01:49;;;;;;;5.05;1.50;;;20.70;79.10;;;;;;5068875;28;19920;-78
2022/08/19 05:04:18;;;;;;;3.67;1.20;;;20.80;78.90;;;;;;5065868;28;20031;-80
2022/08/19 05:06:44;;;;;;;4.17;2.03;;;20.70;78.90;;;;;;5066369;28;20036;-79
2022/08/19 05:09:10;;;;;;;3.45;1.52;;;20.80;79.00;;;;;;5076494;28;20033;-78
2022/08/19 05:11:39;;;;;;;2.45;1.38;;;20.80;79.00;;;;;;5065035;28;20056;-77
2022/08/19 05:14:07;;;;;;;3.85;1.55;;;20.80;78.90;;;;;;5056594;28;20112;-78
2022/08/19 05:16:33;;;;;;;3.97;1.85;;;20.80;79.00;;;;;;5055737;28;20408;-78
2022/08/19 05:24:33;;;;;;;2.25;1.35;;;20.80;79.00;;;;;;5063264;28;20132;-78
2022/08/19 05:27:02;;;;;;;3.50;2.05;;;20.80;78.90;;;;;;5064338;28;20021;-78
2022/08/19 05:29:28;;;;;;;3.17;1.58;;;20.80;78.90;;;;;;5065437;28;20036;-78
2022/08/19 05:31:55;;;;;;;3.53;1.67;;;20.80;78.70;;;;;;5055918;28;20028;-78
2022/08/19 05:34:24;;;;;;;4.65;1.92;;;20.80;78.80;;;;;;5055819;28;20082;-78
2022/08/19 05:36:51;;;;;;;3.72;1.83;;;20.70;79.30;;;;;;5063486;28;20047;-78
2022/08/19 05:39:19;;;;;;;3.58;1.80;;;20.70;79.30;;;;;;5076037;28;20044;-77
2022/08/19 05:41:52;;;;;;;4.18;2.00;;;20.80;79.40;;;;;;5056398;28;20029;-80
2022/08/19 05:44:19;;;;;;;3.53;1.77;;;20.70;79.60;;;;;;5058170;28;20033;-82
2022/08/19 05:46:52;;;;;;;3.63;1.27;;;20.80;79.40;;;;;;5076016;28;20054;-78
2022/08/19 05:49:19;;;;;;;5.05;1.90;;;20.80;79.20;;;;;;5075462;28;20028;-78
2022/08/19 05:51:45;;;;;;;5.13;1.80;;;20.80;79.20;;;;;;5067445;28;20082;-79
2022/08/19 05:54:13;;;;;;;3.35;1.80;;;20.80;79.40;;;;;;5037978;28;20033;-76
2022/08/19 05:56:40;;;;;;;4.53;1.60;;;20.80;79.40;;;;;;5056019;28;20028;-79
2022/08/19 05:59:10;;;;;;;4.30;1.58;;;20.80;79.30;;;;;;5045171;28;20032;-78
2022/08/19 06:01:41;;;;;;;;;;;20.80;79.40;;;;;;5074902;28;20028;-78
2022/08/19 06:04:06;;;;;;;3.25;1.65;;;20.80;79.50;;;;;;5077157;28;20436;-78
2022/08/19 06:06:34;;;;;;;3.05;1.85;;;20.80;79.30;;;;;;5080387;28;20032;-78
2022/08/19 06:09:01;;;;;;;3.88;1.90;;;20.80;79.50;;;;;;5075973;28;20906;-78
2022/08/19 06:11:43;;;;;;;3.72;2.17;;;20.80;79.10;;;;;;5067736;28;20032;-79
2022/08/19 06:14:12;;;;;;;3.03;1.50;;;20.80;79.20;;;;;;5071045;28;20400;-82
2022/08/19 06:16:40;;;;;;;2.80;2.05;;;20.80;79.10;;;;;;5072846;28;20036;-78
2022/08/19 06:19:13;;;;;;;5.30;1.95;;;20.90;78.80;;;;;;5073375;28;20423;-78
2022/08/19 06:21:42;;;;;;;3.97;2.13;;;20.80;79.00;;;;;;5071356;28;20029;-84
2022/08/19 06:24:11;;;;;;;5.35;2.05;;;20.90;79.00;;;;;;5072026;28;21296;-89
2022/08/19 06:26:41;;;;;;;3.97;2.00;;;20.80;79.20;;;;;;5083296;28;20030;-85
2022/08/19 06:29:08;;;;;;;3.05;1.98;;;20.80;79.40;;;;;;5064551;28;20036;-87
2022/08/19 06:31:36;;;;;;;4.63;2.10;;;20.80;79.40;;;;;;5057306;28;20044;-89
2022/08/19 06:34:04;;;;;;;3.60;1.88;;;20.80;79.40;;;;;;5047835;28;20397;-85
2022/08/19 06:36:33;;;;;;;4.45;2.03;;;20.80;79.30;;;;;;5037953;28;20029;-86
2022/08/19 06:39:00;;;;;;;5.07;2.03;;;20.80;79.10;;;;;;5043829;28;20078;-84
2022/08/19 06:41:26;;;;;;;4.95;2.42;;;20.80;79.20;;;;;;5047386;28;20027;-84
2022/08/19 06:43:53;;;;;;;4.32;2.55;;;20.80;79.30;;;;;;5050629;28;20021;-83
2022/08/19 06:46:19;;;;;;;6.47;2.40;;;20.80;79.50;;;;;;5068183;28;20021;-85
2022/08/19 06:48:46;;;;;;;7.00;2.15;;;20.90;79.00;;;;;;5044383;28;20057;-83
2022/08/19 06:51:15;;;;;;;5.47;1.73;;;21.10;78.60;;;;;;5044780;28;20025;-86
2022/08/19 06:53:45;;;;;;;4.22;2.15;;;21.10;78.80;;;;;;5071869;28;20063;-87
2022/08/19 06:56:12;;;;;;;2.95;1.65;;;21.10;79.00;;;;;;5076794;28;20025;-83
2022/08/19 06:58:38;;;;;;;6.57;1.90;;;21.20;79.00;;;;;;5040644;28;20025;-84
2022/08/19 07:01:04;;;;;;;4.18;1.85;;;21.20;79.10;;;;;;5070884;28;20079;-82
2022/08/19 07:03:34;;;;;;;5.38;2.45;;;21.10;79.00;;;;;;5062030;28;20025;-85
2022/08/19 07:06:17;;;;;;;7.07;2.47;;;21.00;79.30;;;;;;5061851;28;20028;-82
2022/08/19 07:08:44;;;;;;;3.50;2.10;;;21.10;79.30;;;;;;5099098;28;20035;-85
2022/08/19 07:11:12;;;;;;;5.80;1.75;;;21.10;79.40;;;;;;5067194;28;20067;-85
2022/08/19 07:13:39;;;;;;;5.00;2.17;;;21.20;79.10;;;;;;5062259;28;20043;-84
2022/08/19 07:16:10;;;;;;;5.70;2.20;;;21.30;79.00;;;;;;5055773;28;20137;-84
2022/08/19 07:18:36;;;;;;;5.35;2.15;;;21.40;78.90;;;;;;5058691;28;20436;-83
2022/08/19 07:21:06;;;;;;;4.75;2.47;;;21.60;78.60;;;;;;5062976;28;20107;-84
2022/08/19 07:23:32;;;;;;;4.05;2.30;;;21.80;78.20;;;;;;5068168;28;20361;-84
2022/08/19 07:26:04;;;;;;;5.63;1.90;;;21.90;77.60;;;;;;5067252;28;20094;-83
2022/08/19 07:28:29;;;;;;;3.35;2.10;;;21.80;77.30;;;;;;5076994;28;20020;-83
2022/08/19 07:30:55;;;;;;;4.40;2.08;;;21.90;77.40;;;;;;5054848;28;20033;-83
2022/08/19 07:33:21;;;;;;;4.00;1.60;;;21.90;77.10;;;;;;5060936;28;20040;-83
2022/08/19 07:35:46;;;;;;;3.28;1.92;;;21.90;76.90;;;;;;5058626;28;20029;-84
2022/08/19 07:38:12;;;;;;;4.45;1.70;;;21.80;77.10;;;;;;5061752;28;20013;-84
2022/08/19 07:40:41;;;;;;;4.35;2.00;;;21.70;77.00;;;;;;5070115;28;20056;-86
2022/08/19 07:43:07;;;;;;;5.55;2.10;;;21.70;77.10;;;;;;5056323;28;20488;-85
2022/08/19 07:45:32;;;;;;;4.47;2.00;;;21.80;77.30;;;;;;5077999;28;20028;-84
2022/08/19 07:47:58;;;;;;;4.68;2.20;;;21.80;77.10;;;;;;5044826;28;20036;-83
2022/08/19 07:50:24;;;;;;;4.65;2.40;;;21.90;76.90;;;;;;5067737;28;20696;-84
2022/08/19 07:52:52;;;;;;;5.85;2.38;;;21.80;77.00;;;;;;5055271;28;20048;-85
2022/08/19 07:55:25;;;;;;;4.32;2.28;;;21.80;77.10;;;;;;5057293;28;20033;-85
2022/08/19 07:57:52;;;;;;;4.70;2.15;;;21.80;77.10;;;;;;5040297;28;20112;-84
2022/08/19 08:00:18;;;;;;;4.10;2.30;;;21.80;76.90;;;;;;5074976;28;20059;-86
2022/08/19 08:02:44;;;;;;;4.90;2.15;;;21.90;76.70;;;;;;5065815;28;20029;-85
2022/08/19 08:10:39;;;;;;;5.97;2.05;;;22.30;75.70;;;;;;5073782;28;20060;-84
2022/08/19 08:13:05;;;;;;;4.45;1.92;;;22.20;75.70;;;;;;5055490;28;20056;-85
2022/08/19 08:15:34;;;;;;;4.75;2.03;;;22.30;75.60;;;;;;5052744;28;20132;-85
2022/08/19 08:18:00;;;;;;;3.90;2.10;;;22.30;75.50;;;;;;5051342;28;20036;-85
2022/08/19 08:20:26;;;;;;;4.35;1.80;;;22.30;75.30;;;;;;5048521;28;20025;-84
2022/08/19 08:25:37;;;;;;;4.32;1.85;;;22.30;75.20;;;;;;5037825;28;20145;-86
2022/08/19 08:28:03;;;;;;;4.45;2.00;;;22.40;75.10;;;;;;5042103;28;20025;-85
2022/08/19 08:30:30;;;;;;;5.85;1.85;;;22.40;74.90;;;;;;5040382;28;20185;-85
2022/08/19 08:32:55;;;;;;;5.63;2.40;;;22.50;74.90;;;;;;5040378;28;20027;-87
2022/08/19 08:35:23;;;;;;;3.45;1.90;;;22.40;74.50;;;;;;5045380;28;20078;-84
2022/08/19 08:37:51;;;;;;;6.72;2.28;;;22.50;74.40;;;;;;5046499;28;20107;-85
2022/08/19 08:40:27;;;;;;;4.72;1.88;;;22.60;74.50;;;;;;5045820;28;20029;-83
2022/08/19 08:43:05;;;;;;;3.78;1.50;;;22.80;74.00;;;;;;5045570;28;20080;-84
2022/08/19 08:45:34;;;;;;;3.75;1.42;;;23.20;73.20;;;;;;5051184;28;20028;-86
2022/08/19 08:48:07;;;;;;;5.00;1.60;;;23.30;72.30;;;;;;5070370;28;20029;-83
2022/08/19 08:50:39;;;;;;;2.60;1.20;;;23.50;71.80;;;;;;5057737;28;20753;-81
2022/08/19 08:53:08;;;;;;;5.07;1.55;;;23.90;71.30;;;;;;5043971;28;20075;-82
2022/08/19 08:55:34;;;;;;;5.63;1.58;;;24.10;70.20;;;;;;5055759;28;20043;-81
2022/08/19 08:58:09;;;;;;;5.32;1.88;;;24.10;68.40;;;;;;5056366;28;20052;-81
2022/08/19 09:00:40;;;;;;;5.40;1.63;;;24.10;68.80;;;;;;5056905;28;20041;-81
2022/08/19 09:03:36;;;;;;;4.30;2.00;;;24.30;68.80;;;;;;5051153;28;20030;-81
2022/08/19 09:06:11;;;;;;;3.67;1.67;;;24.30;68.70;;;;;;5039328;28;20041;-81
2022/08/19 09:09:03;;;;;;;4.28;1.38;;;24.40;67.70;;;;;;5056583;28;20041;-81
2022/08/19 09:11:32;;;;;;;5.38;1.80;;;24.40;67.50;;;;;;5044939;28;20053;-81
2022/08/19 09:14:45;;;;;;;3.47;1.60;;;24.60;67.00;;;;;;5054309;28;20059;-81
2022/08/19 09:17:12;;;;;;;4.80;1.33;;;25.00;66.70;;;;;;5038519;28;20056;-81
2022/08/19 09:19:52;;;;;;;3.72;1.58;;;25.20;65.90;;;;;;5056385;28;20021;-81
2022/08/19 09:22:21;;;;;;;5.70;1.80;;;24.90;65.50;;;;;;5057043;28;20388;-81
2022/08/19 09:24:52;;;;;;;3.33;1.30;;;24.70;66.60;;;;;;5045492;28;20047;-81
2022/08/19 09:27:20;;;;;;;5.05;1.92;;;24.30;67.20;;;;;;5055616;28;20021;-82
2022/08/19 09:29:48;;;;;;;4.25;2.03;;;24.10;68.70;;;;;;5063042;28;20032;-82
2022/08/19 09:32:14;;;;;;;4.53;1.67;;;23.90;68.80;;;;;;5081401;28;20046;-82
2022/08/19 09:34:41;;;;;;;4.18;1.60;;;23.80;69.50;;;;;;5055636;28;21290;-81
2022/08/19 09:37:07;;;;;;;3.80;1.83;;;23.90;69.50;;;;;;5074428;28;20082;-81
2022/08/19 09:39:33;;;;;;;3.85;1.40;;;23.80;69.10;;;;;;5057520;28;20027;-82
2022/08/19 09:42:03;;;;;;;4.68;1.55;;;23.80;69.40;;;;;;5067720;28;20028;-81
2022/08/19 09:44:29;;;;;;;4.15;2.03;;;23.90;69.40;;;;;;5068284;28;20426;-82
2022/08/19 09:46:55;;;;;;;6.40;1.50;;;24.20;69.40;;;;;;5055823;28;20029;-82
2022/08/19 09:49:21;;;;;;;2.80;1.50;;;24.30;69.10;;;;;;5057733;28;20016;-82
2022/08/19 09:51:54;;;;;;;4.10;2.17;;;24.40;68.30;;;;;;5056236;28;20127;-81
2022/08/19 09:54:19;;;;;;;4.60;1.63;;;24.40;68.00;;;;;;5061443;28;20017;-80
2022/08/19 09:56:45;;;;;;;3.80;1.48;;;24.30;68.20;;;;;;5046932;28;20381;-81
2022/08/19 09:59:11;;;;;;;5.97;2.08;;;24.20;68.60;;;;;;5065394;28;20016;-81
2022/08/19 10:01:37;;;;;;;3.55;1.50;;;24.00;69.10;;;;;;5065534;28;20538;-81
2022/08/19 10:04:12;;;;;;;2.35;1.40;;;24.00;69.60;;;;;;5063923;28;20082;-81
2022/08/19 10:06:39;;;;;;;3.70;1.63;;;24.40;68.90;;;;;;5069093;28;20052;-81
2022/08/19 10:09:10;;;;;;;6.25;1.23;;;26.00;66.10;;;;;;5064435;28;20556;-81
2022/08/19 10:11:39;;;;;;;4.15;1.23;;;26.10;64.00;;;;;;5060274;28;20035;-80
2022/08/19 10:14:06;;;;;;;5.53;1.75;;;25.90;63.40;;;;;;5049823;28;20051;-82
2022/08/19 10:16:32;;;;;;;3.10;1.30;;;25.60;64.70;;;;;;5054726;28;20060;-80
2022/08/19 10:18:59;;;;;;;5.47;1.75;;;25.10;65.30;;;;;;5066828;28;20095;-81
2022/08/19 10:21:27;;;;;;;3.20;1.40;;;25.00;66.30;;;;;;5067210;28;20025;-81
2022/08/19 10:23:57;;;;;;;3.03;1.05;;;25.10;66.20;;;;;;5061924;28;20017;-80
2022/08/19 10:26:26;;;;;;;2.50;0.95;;;25.30;65.60;;;;;;5059586;28;20108;-81
2022/08/19 10:28:52;;;;;;;4.70;1.23;;;25.40;65.40;;;;;;5070869;28;20028;-84
2022/08/19 10:31:23;;;;;;;2.95;0.98;;;25.10;65.00;;;;;;5068889;28;20558;-84
2022/08/19 10:33:49;;;;;;;3.67;1.15;;;24.90;65.30;;;;;;5068018;28;20024;-83
2022/08/19 10:36:35;;;;;;;2.95;1.08;;;24.90;65.80;;;;;;5058598;28;20484;-85
2022/08/19 10:39:05;;;;;;;2.97;1.15;;;24.90;66.40;;;;;;5055791;28;20021;-83
2022/08/19 10:41:33;;;;;;;4.25;1.50;;;24.90;67.00;;;;;;5057633;28;20033;-83
2022/08/19 10:44:03;;;;;;;3.25;1.20;;;25.30;67.30;;;;;;5069384;28;20032;-84
2022/08/19 10:46:32;;;;;;;5.57;1.83;;;25.50;65.50;;;;;;5060957;28;20610;-84
2022/08/19 10:48:58;;;;;;;;;;;25.60;66.00;;;;;;5075150;28;20035;-83
2022/08/19 10:54:09;;;;;;;2.28;1.08;;;25.70;65.40;;;;;;5055554;28;20055;-84
2022/08/19 10:56:53;;;;;;;3.28;1.15;;;25.50;65.20;;;;;;5060477;28;20021;-82
2022/08/19 10:59:27;;;;;;;2.58;0.95;;;25.30;65.20;;;;;;5058624;28;20112;-86
2022/08/19 11:01:54;;;;;;;3.95;1.00;;;25.10;65.90;;;;;;5083649;28;20502;-83
2022/08/19 11:04:22;;;;;;;6.30;1.70;;;25.00;66.30;;;;;;5072839;28;20107;-83
2022/08/19 11:06:48;;;;;;;1.90;1.10;;;25.00;66.60;;;;;;5070923;28;20451;-80
2022/08/19 11:09:26;;;;;;;3.22;0.82;;;25.10;66.00;;;;;;5095936;28;20032;-80
2022/08/19 11:11:53;;;;;;;4.70;1.00;;;25.10;65.80;;;;;;5084907;28;20021;-81
2022/08/19 11:14:20;;;;;;;4.53;1.30;;;25.10;65.60;;;;;;5044327;28;20127;-83
2022/08/19 11:16:47;;;;;;;2.72;0.90;;;25.00;65.70;;;;;;5043999;28;20024;-78
2022/08/19 11:19:15;;;;;;;3.90;1.00;;;24.90;67.50;;;;;;5075174;28;20480;-80
2022/08/19 11:21:44;;;;;;;2.67;0.95;;;25.00;67.90;;;;;;5073709;28;20013;-81
2022/08/19 11:24:14;;;;;;;2.55;0.80;;;25.00;68.20;;;;;;5074969;28;20407;-81
2022/08/19 11:26:41;;;;;;;3.78;1.08;;;24.80;68.30;;;;;;5056993;28;20028;-89
2022/08/19 11:29:12;;;;;;;2.35;0.98;;;24.80;69.60;;;;;;5064826;28;20472;-82
2022/08/19 11:31:41;;;;;;;2.08;0.85;;;24.80;69.30;;;;;;5058301;28;20021;-86
2022/08/19 11:34:11;;;;;;;2.88;1.08;;;24.80;69.10;;;;;;5040931;28;20033;-84
2022/08/19 11:36:40;;;;;;;4.05;0.80;;;24.80;69.00;;;;;;5044976;28;20074;-86
2022/08/19 11:39:07;;;;;;;2.55;0.95;;;25.00;68.60;;;;;;5078849;28;20029;-79
2022/08/19 11:41:34;;;;;;;2.53;0.90;;;25.30;68.50;;;;;;5068911;28;20095;-89
2022/08/19 11:44:00;;;;;;;2.83;1.10;;;25.50;68.10;;;;;;5068935;28;20377;-90
2022/08/19 11:46:29;;;;;;;2.15;0.77;;;25.70;67.00;;;;;;5043628;28;20045;-90
2022/08/19 11:48:59;;;;;;;5.80;1.30;;;25.80;65.70;;;;;;5059518;28;20025;-89
2022/08/19 11:51:26;;;;;;;3.92;0.98;;;25.70;66.50;;;;;;5064892;28;20024;-89
2022/08/19 11:53:53;;;;;;;4.90;1.50;;;25.50;69.00;;;;;;5059578;28;20549;-86
2022/08/19 11:56:20;;;;;;;4.35;1.30;;;25.60;69.40;;;;;;5042926;28;20025;-88
2022/08/19 11:58:46;;;;;;;5.47;1.67;;;25.70;69.90;;;;;;5051695;28;20037;-88
2022/08/19 12:01:16;;;;;;;4.60;1.17;;;25.70;69.50;;;;;;5049337;28;20031;-86
2022/08/19 12:03:46;;;;;;;3.67;1.17;;;25.80;69.50;;;;;;5070620;28;20028;-87
2022/08/19 12:06:17;;;;;;;2.05;0.70;;;25.90;69.60;;;;;;5068110;28;20766;-88
2022/08/19 12:08:45;;;;;;;3.65;1.20;;;26.00;69.00;;;;;;5049571;28;20024;-89
2022/08/19 12:11:13;;;;;;;1.98;1.20;;;26.10;69.60;;;;;;5064263;28;20074;-90
2022/08/19 12:13:40;;;;;;;5.03;0.95;;;26.00;69.30;;;;;;5067112;28;20041;-91
2022/08/19 12:16:12;;;;;;;2.88;0.70;;;25.90;68.60;;;;;;5048281;28;20033;-87
2022/08/19 12:18:41;;;;;;;1.95;0.95;;;25.90;69.40;;;;;;5066459;28;20024;-86
2022/08/19 12:21:07;;;;;;;3.30;1.10;;;25.80;68.80;;;;;;5067101;28;20079;-90
2022/08/19 12:23:32;;;;;;;3.58;0.90;;;25.70;69.30;;;;;;5056086;28;20033;-89
2022/08/19 12:25:58;;;;;;;1.40;0.70;;;25.40;69.50;;;;;;5058135;28;20036;-87
2022/08/19 12:28:25;;;;;;;1.27;0.50;;;25.30;70.40;;;;;;5059071;28;20033;-89
2022/08/19 12:30:51;;;;;;;2.65;0.80;;;25.20;69.10;;;;;;5072853;28;20029;-87
2022/08/19 12:33:24;;;;;;;2.28;0.63;;;25.30;69.90;;;;;;5055663;28;20408;-87
2022/08/19 12:35:50;;;;;;;1.50;0.60;;;25.30;68.50;;;;;;5051252;28;20063;-88
2022/08/19 12:38:16;;;;;;;1.60;0.50;;;25.50;68.60;;;;;;5038560;28;20496;-89
2022/08/19 12:40:45;;;;;;;2.67;0.70;;;25.70;67.50;;;;;;5057457;28;20392;-90
2022/08/19 12:43:11;;;;;;;2.08;0.70;;;25.80;67.30;;;;;;5056435;28;20028;-89
2022/08/19 12:45:37;;;;;;;2.33;0.73;;;26.00;66.60;;;;;;5039619;28;20471;-88
2022/08/19 12:48:04;;;;;;;3.15;0.50;;;26.30;67.20;;;;;;5039837;28;20029;-90
2022/08/19 12:50:30;;;;;;;2.47;0.55;;;26.40;65.90;;;;;;5039708;28;20017;-88
2022/08/19 12:52:56;;;;;;;1.85;0.60;;;26.40;64.70;;;;;;5039404;28;20032;-88
2022/08/19 12:55:22;;;;;;;1.25;0.50;;;26.50;65.00;;;;;;5039342;28;20021;-89
2022/08/19 12:57:48;;;;;;;2.28;0.77;;;26.40;64.60;;;;;;5041689;28;20427;-89
2022/08/19 13:00:18;;;;;;;1.13;0.40;;;26.40;64.00;;;;;;5069272;28;20096;-89
2022/08/19 13:02:46;;;;;;;1.45;0.55;;;26.30;64.50;;;;;;5059248;28;20056;-89
2022/08/19 13:05:22;;;;;;;2.05;0.52;;;26.10;64.40;;;;;;5054943;28;20056;-81
2022/08/19 13:07:49;;;;;;;2.90;0.63;;;25.90;64.70;;;;;;5096793;28;20099;-87
2022/08/19 13:10:21;;;;;;;1.20;0.60;;;25.80;65.10;;;;;;5095387;28;20043;-89
2022/08/19 13:12:50;;;;;;;1.35;0.50;;;25.90;65.60;;;;;;5067307;28;20049;-87